Аэропорт: Остафьево. Москва

ICAO: UUMO

METAR:
2019/05/26 14:00
UUMO 261400Z 30002MPS 270V340 9999 BKN046 20/12 Q1003 R26/090060 NOSIG RMK QFE737/0983
METAR:
Информация по данной станции не доступна